createdAt,value
2019-05-25T00:00:28.593Z,13.70
2019-05-25T00:03:32.928Z,13.50
2019-05-25T00:06:36.101Z,13.30
2019-05-25T00:09:40.360Z,13.30
2019-05-25T00:12:43.524Z,13.20
2019-05-25T00:15:46.718Z,13.10
2019-05-25T00:18:49.948Z,13.00
2019-05-25T00:21:53.008Z,13.00
2019-05-25T00:24:56.236Z,13.00
2019-05-25T00:27:59.387Z,13.00
2019-05-25T00:31:02.668Z,12.90
2019-05-25T00:34:06.028Z,12.70
2019-05-25T00:37:09.279Z,12.70
2019-05-25T00:40:12.483Z,12.70
2019-05-25T00:43:15.573Z,12.50
2019-05-25T00:46:18.696Z,12.30
2019-05-25T00:49:21.979Z,12.20
2019-05-25T00:52:25.056Z,12.10
2019-05-25T00:55:28.247Z,11.90
2019-05-25T00:58:31.412Z,11.80
2019-05-25T01:01:56.430Z,11.70
2019-05-25T01:05:00.713Z,11.70
2019-05-25T01:08:05.252Z,11.70
2019-05-25T01:11:08.396Z,11.60
2019-05-25T01:14:11.624Z,11.60
2019-05-25T01:17:15.963Z,11.60
2019-05-25T01:20:21.091Z,11.50
2019-05-25T01:23:24.153Z,11.60
2019-05-25T01:26:27.244Z,11.50
2019-05-25T01:29:30.391Z,11.40
2019-05-25T01:32:33.661Z,11.30
2019-05-25T01:35:36.764Z,11.30
2019-05-25T01:38:39.956Z,11.30
2019-05-25T01:41:43.009Z,11.20
2019-05-25T01:44:46.160Z,11.00
2019-05-25T01:47:49.400Z,10.80
2019-05-25T01:50:52.735Z,10.70
2019-05-25T01:53:55.795Z,10.60
2019-05-25T01:56:58.979Z,10.40
2019-05-25T02:00:04.129Z,10.30
2019-05-25T02:03:07.736Z,10.10
2019-05-25T02:06:10.832Z,10.00
2019-05-25T02:09:14.011Z,9.90
2019-05-25T02:12:17.449Z,9.80
2019-05-25T02:15:20.872Z,9.70
2019-05-25T02:18:24.219Z,9.60
2019-05-25T02:21:27.415Z,9.50
2019-05-25T02:24:30.540Z,9.50
2019-05-25T02:27:33.720Z,9.40
2019-05-25T02:30:37.309Z,9.40
2019-05-25T02:33:40.522Z,9.50
2019-05-25T02:36:44.831Z,9.70
2019-05-25T02:39:47.965Z,9.70
2019-05-25T02:42:51.337Z,9.80
2019-05-25T02:45:55.806Z,9.90
2019-05-25T02:48:58.965Z,9.90
2019-05-25T02:52:02.262Z,10.10
2019-05-25T02:55:07.821Z,10.10
2019-05-25T02:58:11.292Z,10.20
2019-05-25T03:01:14.565Z,10.30
2019-05-25T03:04:19.992Z,10.30
2019-05-25T03:07:23.638Z,10.30
2019-05-25T03:10:28.073Z,10.30
2019-05-25T03:13:32.384Z,10.40
2019-05-25T03:16:36.179Z,10.40
2019-05-25T03:19:41.117Z,10.40
2019-05-25T03:22:44.720Z,10.40
2019-05-25T03:25:50.018Z,10.30
2019-05-25T03:28:55.156Z,10.30
2019-05-25T03:31:59.847Z,10.10
2019-05-25T03:35:03.511Z,10.10
2019-05-25T03:38:07.970Z,10.00
2019-05-25T03:41:11.453Z,10.00
2019-05-25T03:44:14.842Z,10.00
2019-05-25T03:47:19.161Z,10.00
2019-05-25T03:50:22.520Z,10.00
2019-05-25T03:53:25.907Z,10.10
2019-05-25T03:56:30.271Z,10.00
2019-05-25T03:59:33.656Z,10.10
2019-05-25T04:02:39.518Z,10.20
2019-05-25T04:05:42.736Z,10.20
2019-05-25T04:08:46.133Z,10.20
2019-05-25T04:11:49.579Z,10.30
2019-05-25T04:14:52.958Z,10.40
2019-05-25T04:17:56.072Z,10.50
2019-05-25T04:20:59.604Z,10.50
2019-05-25T04:24:02.791Z,10.60
2019-05-25T04:27:06.512Z,10.60
2019-05-25T04:30:09.991Z,10.60
2019-05-25T04:33:15.205Z,10.70
2019-05-25T04:36:18.773Z,10.70
2019-05-25T04:39:23.636Z,10.70
2019-05-25T04:42:26.815Z,10.80
2019-05-25T04:45:30.201Z,10.90
2019-05-25T04:48:36.238Z,11.00
2019-05-25T04:51:41.060Z,11.10
2019-05-25T04:54:46.499Z,11.20
2019-05-25T04:57:49.746Z,11.30
2019-05-25T05:00:53.193Z,11.50
2019-05-25T05:03:57.661Z,11.60
2019-05-25T05:07:04.626Z,11.80
2019-05-25T05:10:08.013Z,11.80
2019-05-25T05:13:11.100Z,11.70
2019-05-25T05:16:14.176Z,11.70
2019-05-25T05:19:19.086Z,11.70
2019-05-25T05:22:22.344Z,11.90
2019-05-25T05:25:25.402Z,11.90
2019-05-25T05:28:28.600Z,11.90
2019-05-25T05:31:31.823Z,12.00
2019-05-25T05:34:35.071Z,12.10
2019-05-25T05:37:40.590Z,12.20
2019-05-25T05:40:44.755Z,12.10
2019-05-25T05:43:49.179Z,12.10
2019-05-25T05:46:54.797Z,12.10
2019-05-25T05:50:01.206Z,12.20
2019-05-25T05:53:04.457Z,12.50
2019-05-25T05:56:07.495Z,12.60
2019-05-25T05:59:10.591Z,12.80
2019-05-25T06:02:13.820Z,12.90
2019-05-25T06:05:16.880Z,13.10
2019-05-25T06:08:19.968Z,13.20
2019-05-25T06:11:24.087Z,13.50
2019-05-25T06:14:27.283Z,13.40
2019-05-25T06:17:30.412Z,13.60
2019-05-25T06:20:34.494Z,13.70
2019-05-25T06:23:37.588Z,14.00
2019-05-25T06:26:40.771Z,14.40
2019-05-25T06:29:45.103Z,14.30
2019-05-25T06:32:48.196Z,14.10
2019-05-25T06:35:51.420Z,14.40
2019-05-25T06:38:54.537Z,14.40
2019-05-25T06:41:57.572Z,14.30
2019-05-25T06:45:00.710Z,14.40
2019-05-25T06:48:04.001Z,14.60
2019-05-25T06:51:07.051Z,15.20
2019-05-25T06:54:10.183Z,15.80
2019-05-25T06:57:13.239Z,16.50
2019-05-25T07:00:16.779Z,16.00
2019-05-25T07:03:19.907Z,15.90
2019-05-25T07:06:23.132Z,15.70
2019-05-25T07:09:26.299Z,15.80
2019-05-25T07:12:29.320Z,16.00
2019-05-25T07:15:32.439Z,16.00
2019-05-25T07:18:35.856Z,15.80
2019-05-25T07:21:39.931Z,15.70
2019-05-25T07:24:43.157Z,15.70
2019-05-25T07:27:58.725Z,15.40
2019-05-25T07:30:51.352Z,15.70
2019-05-25T07:33:54.591Z,15.50
2019-05-25T07:36:57.752Z,15.60
2019-05-25T07:40:00.984Z,15.20
2019-05-25T07:43:04.079Z,15.40
2019-05-25T07:46:07.277Z,15.40
2019-05-25T07:49:10.647Z,15.30
2019-05-25T07:52:13.886Z,15.30
2019-05-25T07:55:17.023Z,15.10
2019-05-25T07:58:21.991Z,15.20
2019-05-25T08:01:25.056Z,15.20
2019-05-25T08:04:29.971Z,15.40
2019-05-25T08:07:33.180Z,15.70
2019-05-25T08:10:36.304Z,15.90
2019-05-25T08:13:39.364Z,15.80
2019-05-25T08:16:42.502Z,15.90
2019-05-25T08:19:45.817Z,15.60
2019-05-25T08:22:49.026Z,16.00
2019-05-25T08:25:53.087Z,16.00
2019-05-25T08:28:56.208Z,15.90
2019-05-25T08:31:59.252Z,15.50
2019-05-25T08:35:02.444Z,15.70
2019-05-25T08:38:05.783Z,15.90
2019-05-25T08:41:08.940Z,16.10
2019-05-25T08:44:12.035Z,16.60
2019-05-25T08:47:15.133Z,16.80
2019-05-25T08:50:18.464Z,16.70
2019-05-25T08:53:39.566Z,16.10
2019-05-25T08:56:26.897Z,16.30
2019-05-25T08:59:30.060Z,16.60
2019-05-25T09:02:33.155Z,16.80
2019-05-25T09:05:36.247Z,16.80
2019-05-25T09:08:39.335Z,16.70
2019-05-25T09:11:42.462Z,16.50
2019-05-25T09:14:45.551Z,16.60
2019-05-25T09:17:48.719Z,16.00
2019-05-25T09:20:51.809Z,15.80
2019-05-25T09:23:54.955Z,16.00
2019-05-25T09:26:58.279Z,16.40
2019-05-25T09:30:01.439Z,16.40
2019-05-25T09:33:04.803Z,16.40
2019-05-25T09:36:07.896Z,16.10
2019-05-25T09:39:11.083Z,16.30
2019-05-25T09:42:14.180Z,16.10
2019-05-25T09:45:17.512Z,16.20
2019-05-25T09:48:20.672Z,16.30
2019-05-25T09:51:23.759Z,16.90
2019-05-25T09:54:27.032Z,17.10
2019-05-25T09:57:30.151Z,17.10
2019-05-25T10:00:33.857Z,16.50
2019-05-25T10:03:37.052Z,16.30
2019-05-25T10:06:41.847Z,16.40
2019-05-25T10:09:44.988Z,16.40
2019-05-25T10:12:49.967Z,16.20
2019-05-25T10:15:53.012Z,16.00
2019-05-25T10:18:56.135Z,16.00
2019-05-25T10:21:59.714Z,15.90
2019-05-25T10:25:03.119Z,15.80
2019-05-25T10:28:06.340Z,16.60
2019-05-25T10:31:09.541Z,17.30
2019-05-25T10:34:12.796Z,17.70
2019-05-25T10:37:15.930Z,17.40
2019-05-25T10:40:19.799Z,16.90
2019-05-25T10:43:23.034Z,16.70
2019-05-25T10:46:26.343Z,16.20
2019-05-25T10:49:30.618Z,16.60
2019-05-25T10:52:33.745Z,16.50
2019-05-25T10:55:36.845Z,16.20
2019-05-25T10:58:40.028Z,16.30
2019-05-25T11:01:43.135Z,16.40
2019-05-25T11:04:46.197Z,16.40
2019-05-25T11:07:50.332Z,16.60
2019-05-25T11:10:53.171Z,16.00
2019-05-25T11:13:56.311Z,15.70
2019-05-25T11:16:59.687Z,15.70
2019-05-25T11:20:03.022Z,16.00
2019-05-25T11:23:06.453Z,16.10
2019-05-25T11:26:09.714Z,16.50
2019-05-25T11:29:12.805Z,16.80
2019-05-25T11:32:16.150Z,16.50
2019-05-25T11:35:19.290Z,16.60
2019-05-25T11:38:22.540Z,16.30
2019-05-25T11:41:25.686Z,16.20
2019-05-25T11:44:29.195Z,16.20
2019-05-25T11:47:32.320Z,16.50
2019-05-25T11:50:35.580Z,16.50
2019-05-25T11:53:38.670Z,16.10
2019-05-25T11:56:41.768Z,15.80
2019-05-25T11:59:44.884Z,15.80
2019-05-25T12:02:47.992Z,15.90
2019-05-25T12:05:51.199Z,15.50
2019-05-25T12:08:54.236Z,15.40
2019-05-25T12:11:57.331Z,15.40
2019-05-25T12:15:00.536Z,15.50
2019-05-25T12:18:03.682Z,15.70
2019-05-25T12:21:06.815Z,15.60
2019-05-25T12:24:10.007Z,15.50
2019-05-25T12:27:13.099Z,15.10
2019-05-25T12:30:16.915Z,15.40
2019-05-25T12:33:20.111Z,15.60
2019-05-25T12:36:24.805Z,15.60
2019-05-25T12:39:27.954Z,15.80
2019-05-25T12:42:31.062Z,16.10
2019-05-25T12:45:34.120Z,16.70
2019-05-25T12:48:37.417Z,16.30
2019-05-25T12:51:40.509Z,16.30
2019-05-25T12:54:43.808Z,16.50
2019-05-25T12:57:46.995Z,16.60
2019-05-25T13:00:56.005Z,16.30
2019-05-25T13:03:55.030Z,16.40
2019-05-25T13:06:58.227Z,16.70
2019-05-25T13:10:01.367Z,16.50
2019-05-25T13:13:04.616Z,16.50
2019-05-25T13:16:07.853Z,16.70
2019-05-25T13:19:11.077Z,16.80
2019-05-25T13:22:14.203Z,16.80
2019-05-25T13:25:17.297Z,16.70
2019-05-25T13:28:20.487Z,16.50
2019-05-25T13:31:23.780Z,17.40
2019-05-25T13:34:26.884Z,19.20
2019-05-25T13:37:29.967Z,18.80
2019-05-25T13:40:33.060Z,18.50
2019-05-25T13:43:36.251Z,18.00
2019-05-25T13:46:39.387Z,17.00
2019-05-25T13:49:42.590Z,17.10
2019-05-25T13:52:45.779Z,17.60
2019-05-25T13:55:48.879Z,17.60
2019-05-25T13:58:52.983Z,17.50
2019-05-25T14:01:56.077Z,17.60
2019-05-25T14:04:59.231Z,18.70
2019-05-25T14:08:02.433Z,21.10
2019-05-25T14:11:05.636Z,22.20
2019-05-25T14:14:08.860Z,22.10
2019-05-25T14:17:12.022Z,20.30
2019-05-25T14:20:15.344Z,19.40
2019-05-25T14:23:18.606Z,19.20
2019-05-25T14:26:21.712Z,18.90
2019-05-25T14:29:26.258Z,18.70
2019-05-25T14:32:29.742Z,19.30
2019-05-25T14:35:32.868Z,19.80
2019-05-25T14:38:36.067Z,19.60
2019-05-25T14:41:39.273Z,18.60
2019-05-25T14:44:43.428Z,18.10
2019-05-25T14:47:46.645Z,18.10
2019-05-25T14:50:49.769Z,18.50
2019-05-25T14:53:52.966Z,18.80
2019-05-25T14:56:57.143Z,18.60
2019-05-25T15:00:00.265Z,17.90
2019-05-25T15:03:03.434Z,17.60
2019-05-25T15:06:06.666Z,17.80
2019-05-25T15:09:09.859Z,17.80
2019-05-25T15:12:13.127Z,17.80
2019-05-25T15:15:16.784Z,17.90
2019-05-25T15:18:20.015Z,18.00
2019-05-25T15:21:23.332Z,17.50
2019-05-25T15:24:26.443Z,17.20
2019-05-25T15:27:29.526Z,17.00
2019-05-25T15:30:32.631Z,17.50
2019-05-25T15:33:35.689Z,17.80
2019-05-25T15:36:38.891Z,17.60
2019-05-25T15:39:42.008Z,17.50
2019-05-25T15:42:45.163Z,17.40
2019-05-25T15:45:48.344Z,17.60
2019-05-25T15:48:51.532Z,17.50
2019-05-25T15:51:54.759Z,17.10
2019-05-25T15:54:57.983Z,17.10
2019-05-25T15:58:01.043Z,17.20
2019-05-25T16:01:04.285Z,17.40
2019-05-25T16:04:07.637Z,17.50
2019-05-25T16:07:10.836Z,17.50
2019-05-25T16:10:14.064Z,17.70
2019-05-25T16:13:17.531Z,17.40
2019-05-25T16:16:29.551Z,17.50
2019-05-25T16:19:25.667Z,17.70
2019-05-25T16:22:28.772Z,17.10
2019-05-25T16:25:31.883Z,17.10
2019-05-25T16:28:35.099Z,17.10
2019-05-25T16:31:38.443Z,16.90
2019-05-25T16:34:41.642Z,16.90
2019-05-25T16:37:45.062Z,16.90
2019-05-25T16:40:48.372Z,16.80
2019-05-25T16:43:51.731Z,16.50
2019-05-25T16:46:54.931Z,16.50
2019-05-25T16:49:58.133Z,16.70
2019-05-25T16:53:01.236Z,16.70
2019-05-25T16:56:04.448Z,16.50
2019-05-25T16:59:07.603Z,16.80
2019-05-25T17:02:10.810Z,16.80
2019-05-25T17:05:14.207Z,16.80
2019-05-25T17:08:17.295Z,16.90
2019-05-25T17:11:20.495Z,16.80
2019-05-25T17:14:23.587Z,16.80
2019-05-25T17:17:26.689Z,16.50
2019-05-25T17:20:29.877Z,16.40
2019-05-25T17:23:33.109Z,16.50
2019-05-25T17:26:36.298Z,16.50
2019-05-25T17:29:39.463Z,16.20
2019-05-25T17:32:42.687Z,16.20
2019-05-25T17:35:45.752Z,16.20
2019-05-25T17:38:48.979Z,16.10
2019-05-25T17:41:52.163Z,16.00
2019-05-25T17:44:55.343Z,15.90
2019-05-25T17:47:58.564Z,15.90
2019-05-25T17:51:01.745Z,16.00
2019-05-25T17:54:05.058Z,16.10
2019-05-25T17:57:08.247Z,16.00
2019-05-25T18:00:11.707Z,15.90
2019-05-25T18:03:16.285Z,15.70
2019-05-25T18:06:19.340Z,15.60
2019-05-25T18:09:22.559Z,15.60
2019-05-25T18:12:25.860Z,15.40
2019-05-25T18:15:29.028Z,15.30
2019-05-25T18:18:32.157Z,15.50
2019-05-25T18:21:35.409Z,15.40
2019-05-25T18:24:38.591Z,15.30
2019-05-25T18:27:41.695Z,15.30
2019-05-25T18:30:44.802Z,15.10
2019-05-25T18:33:47.932Z,15.00
2019-05-25T18:36:50.984Z,14.80
2019-05-25T18:39:54.179Z,14.60
2019-05-25T18:42:57.321Z,14.50
2019-05-25T18:46:00.501Z,14.30
2019-05-25T18:49:03.811Z,14.20
2019-05-25T18:52:06.956Z,14.00
2019-05-25T18:55:10.439Z,13.80
2019-05-25T18:58:13.684Z,13.70
2019-05-25T19:01:16.846Z,13.50
2019-05-25T19:04:20.179Z,13.30
2019-05-25T19:07:24.544Z,13.20
2019-05-25T19:10:27.868Z,13.00
2019-05-25T19:13:31.002Z,12.80
2019-05-25T19:16:34.064Z,12.60
2019-05-25T19:19:37.185Z,12.40
2019-05-25T19:22:40.343Z,12.30
2019-05-25T19:25:43.636Z,12.10
2019-05-25T19:28:46.769Z,12.00
2019-05-25T19:31:49.827Z,11.80
2019-05-25T19:34:59.760Z,11.80
2019-05-25T19:37:57.967Z,11.70
2019-05-25T19:41:01.268Z,11.70
2019-05-25T19:44:04.487Z,11.70
2019-05-25T19:47:07.544Z,11.60
2019-05-25T19:50:11.248Z,11.60
2019-05-25T19:53:14.444Z,11.50
2019-05-25T19:56:17.531Z,11.50
2019-05-25T19:59:20.729Z,11.50
2019-05-25T20:02:23.823Z,11.50
2019-05-25T20:05:27.067Z,11.40
2019-05-25T20:08:30.216Z,11.40
2019-05-25T20:11:33.403Z,11.30
2019-05-25T20:14:36.532Z,11.20
2019-05-25T20:17:39.699Z,11.00
2019-05-25T20:20:42.790Z,11.00
2019-05-25T20:23:45.890Z,10.90
2019-05-25T20:26:49.088Z,10.80
2019-05-25T20:29:52.175Z,10.70
2019-05-25T20:32:55.421Z,10.60
2019-05-25T20:35:58.579Z,10.50
2019-05-25T20:39:01.855Z,10.30
2019-05-25T20:42:06.948Z,10.30
2019-05-25T20:45:43.081Z,10.10
2019-05-25T20:48:46.154Z,10.00
2019-05-25T20:51:49.395Z,9.90
2019-05-25T20:54:52.643Z,9.80
2019-05-25T20:57:55.880Z,9.70
2019-05-25T21:00:59.079Z,9.70
2019-05-25T21:04:03.480Z,9.70
2019-05-25T21:07:07.720Z,9.70
2019-05-25T21:10:11.189Z,9.70
2019-05-25T21:13:14.315Z,9.70
2019-05-25T21:16:17.610Z,9.60
2019-05-25T21:19:20.848Z,9.50
2019-05-25T21:22:24.111Z,9.40
2019-05-25T21:25:27.158Z,9.30
2019-05-25T21:28:30.391Z,9.30
2019-05-25T21:31:33.496Z,9.30
2019-05-25T21:34:36.656Z,9.30
2019-05-25T21:37:39.880Z,9.20
2019-05-25T21:40:42.928Z,9.20
2019-05-25T21:43:46.030Z,9.20
2019-05-25T21:46:49.161Z,9.20
2019-05-25T21:49:52.307Z,9.10
2019-05-25T21:52:55.437Z,9.20
2019-05-25T21:55:58.603Z,9.10
2019-05-25T21:59:01.900Z,9.10
2019-05-25T22:02:05.129Z,8.90
2019-05-25T22:05:08.387Z,8.80
2019-05-25T22:08:11.724Z,8.70
2019-05-25T22:11:14.784Z,8.60
2019-05-25T22:14:17.911Z,8.60
2019-05-25T22:17:21.992Z,8.50
2019-05-25T22:20:25.108Z,8.40
2019-05-25T22:23:28.225Z,8.40
2019-05-25T22:26:31.412Z,8.30
2019-05-25T22:29:34.712Z,8.20
2019-05-25T22:32:37.988Z,8.20
2019-05-25T22:35:41.126Z,8.20
2019-05-25T22:38:44.188Z,8.30
2019-05-25T22:41:47.247Z,8.20
2019-05-25T22:44:50.639Z,8.20
2019-05-25T22:47:53.744Z,8.10
2019-05-25T22:50:56.831Z,8.00
2019-05-25T22:53:59.960Z,8.00
2019-05-25T22:57:03.428Z,8.00
2019-05-25T23:00:08.036Z,8.00
2019-05-25T23:03:12.475Z,7.90
2019-05-25T23:06:15.672Z,7.80
2019-05-25T23:09:18.916Z,7.70
2019-05-25T23:12:22.230Z,7.60
2019-05-25T23:15:25.532Z,7.50
2019-05-25T23:18:28.632Z,7.50
2019-05-25T23:21:31.726Z,7.40
2019-05-25T23:24:34.949Z,7.30
2019-05-25T23:27:39.143Z,7.30
2019-05-25T23:30:42.359Z,7.30
2019-05-25T23:33:45.525Z,7.30
2019-05-25T23:36:49.744Z,7.30
2019-05-25T23:40:11.940Z,7.20
2019-05-25T23:43:15.288Z,7.10
2019-05-25T23:46:18.515Z,7.10
2019-05-25T23:49:22.795Z,7.10
2019-05-25T23:52:26.047Z,7.10
2019-05-25T23:55:29.392Z,7.00
2019-05-25T23:58:33.715Z,7.10
